Time;durP1;ratioP1;P1;durP2;ratioP2;P2;SDS_P1;SDS_P2;PMS_P1;PMS_P2;Temp;Humidity;BMP_temperature;BMP_pressure;BME280_temperature;BME280_humidity;BME280_pressure;Samples;Min_cycle;Max_cycle;Signal;HPM_P1;HPM_P2
2023/12/10 06:00:50;;;;;;;13.10;3.40;;;;;;;;;;5858849;22;20497;-75
2023/12/10 06:03:16;;;;;;;14.07;2.90;;;;;;;;;;5014698;28;20838;-75
2023/12/10 06:05:42;;;;;;;17.27;3.70;;;;;;;;;;5023630;28;20454;-75
2023/12/10 06:08:09;;;;;;;16.67;3.33;;;;;;;;;;5034135;28;20410;-75
2023/12/10 06:10:35;;;;;;;25.30;4.10;;;;;;;;;;5032172;28;20509;-75
2023/12/10 06:13:02;;;;;;;21.63;4.80;;;;;;;;;;5016259;28;20441;-76
2023/12/10 06:15:28;;;;;;;13.30;4.03;;;;;;;;;;5013999;28;20410;-75
2023/12/10 06:17:54;;;;;;;10.17;3.50;;;;;;;;;;5015273;28;20772;-75
2023/12/10 06:20:20;;;;;;;21.40;3.93;;;;;;;;;;5013544;28;20510;-75
2023/12/10 06:22:46;;;;;;;15.53;3.73;;;;;;;;;;5013706;28;20409;-76
2023/12/10 06:25:12;;;;;;;14.67;3.13;;;;;;;;;;5013555;28;20454;-76
2023/12/10 06:27:39;;;;;;;17.20;3.90;;;;;;;;;;5013799;28;20422;-75
2023/12/10 06:30:05;;;;;;;16.07;3.37;;;;;;;;;;5013177;28;20415;-76
2023/12/10 06:32:31;;;;;;;13.80;3.53;;;;;;;;;;5012733;28;20436;-75
2023/12/10 06:34:58;;;;;;;17.67;3.40;;;;;;;;;;5013318;28;20432;-75
2023/12/10 06:37:24;;;;;;;10.40;3.23;;;;;;;;;;5013228;28;20769;-76
2023/12/10 06:39:50;;;;;;;13.13;3.57;;;;;;;;;;5013034;28;20497;-75
2023/12/10 06:42:16;;;;;;;14.40;3.60;;;;;;;;;;5013497;28;20457;-75
2023/12/10 06:44:41;;;;;;;13.33;3.00;;;;;;;;;;5011956;28;20418;-75
2023/12/10 06:47:08;;;;;;;21.50;4.13;;;;;;;;;;5013252;28;21227;-75
2023/12/10 06:49:34;;;;;;;14.90;4.17;;;;;;;;;;5013055;28;20406;-75
2023/12/10 06:52:00;;;;;;;17.80;3.20;;;;;;;;;;5013223;28;20429;-75
2023/12/10 06:54:26;;;;;;;10.90;2.43;;;;;;;;;;5013151;28;20407;-75
2023/12/10 06:56:52;;;;;;;12.10;3.30;;;;;;;;;;5012987;28;20402;-76
2023/12/10 06:59:18;;;;;;;16.10;3.63;;;;;;;;;;5011357;28;20450;-75
2023/12/10 07:01:44;;;;;;;14.53;4.33;;;;;;;;;;5012687;28;20507;-76
2023/12/10 07:04:10;;;;;;;15.30;3.30;;;;;;;;;;5012887;28;20421;-75
2023/12/10 07:06:36;;;;;;;9.70;3.10;;;;;;;;;;5012611;28;20461;-75
2023/12/10 07:09:06;;;;;;;11.90;3.40;;;;;;;;;;5012752;28;20760;-75
2023/12/10 07:11:32;;;;;;;12.57;3.40;;;;;;;;;;5012580;28;20456;-75
2023/12/10 07:13:58;;;;;;;24.67;4.23;;;;;;;;;;5012449;28;20878;-75
2023/12/10 07:16:24;;;;;;;14.33;3.40;;;;;;;;;;5012561;28;20552;-75
2023/12/10 07:18:50;;;;;;;8.80;3.20;;;;;;;;;;5012348;28;20418;-75
2023/12/10 07:21:16;;;;;;;17.37;3.20;;;;;;;;;;5012371;28;20899;-75
2023/12/10 07:23:42;;;;;;;12.10;4.10;;;;;;;;;;5011176;28;20440;-76
2023/12/10 07:26:09;;;;;;;14.93;3.13;;;;;;;;;;5012500;28;20446;-76
2023/12/10 07:28:35;;;;;;;14.27;3.47;;;;;;;;;;5012366;28;20435;-75
2023/12/10 07:31:01;;;;;;;13.33;3.43;;;;;;;;;;5012149;28;20426;-76
2023/12/10 07:33:27;;;;;;;19.60;3.33;;;;;;;;;;5012337;28;20410;-76
2023/12/10 07:35:53;;;;;;;27.70;3.60;;;;;;;;;;5012480;28;20410;-75
2023/12/10 07:38:19;;;;;;;23.00;4.57;;;;;;;;;;5013334;28;20501;-75
2023/12/10 07:40:45;;;;;;;12.97;2.70;;;;;;;;;;5012486;28;20525;-75
2023/12/10 07:43:11;;;;;;;17.60;3.47;;;;;;;;;;5010735;28;20414;-75
2023/12/10 07:45:37;;;;;;;13.83;3.50;;;;;;;;;;5012095;28;20951;-75
2023/12/10 07:48:03;;;;;;;15.13;3.10;;;;;;;;;;5012146;28;20418;-75
2023/12/10 07:50:29;;;;;;;17.70;3.30;;;;;;;;;;5010480;28;20466;-75
2023/12/10 07:52:55;;;;;;;18.87;3.37;;;;;;;;;;5012258;28;20439;-75
2023/12/10 07:55:21;;;;;;;25.93;3.83;;;;;;;;;;5011990;28;20424;-75
2023/12/10 07:57:48;;;;;;;21.03;5.00;;;;;;;;;;5012152;28;20402;-75
2023/12/10 08:00:14;;;;;;;17.60;3.77;;;;;;;;;;5011846;28;20494;-74
2023/12/10 08:02:40;;;;;;;20.43;4.70;;;;;;;;;;5012192;28;20418;-75
2023/12/10 08:05:06;;;;;;;14.43;4.40;;;;;;;;;;5011941;28;20473;-75
2023/12/10 08:07:32;;;;;;;21.60;5.53;;;;;;;;;;5012014;28;20480;-75
2023/12/10 08:09:58;;;;;;;16.73;3.33;;;;;;;;;;5011653;28;20748;-75
2023/12/10 08:12:24;;;;;;;12.90;3.60;;;;;;;;;;5010466;28;20457;-75
2023/12/10 08:14:50;;;;;;;12.53;3.13;;;;;;;;;;5010582;28;20505;-75
2023/12/10 08:17:16;;;;;;;10.50;3.57;;;;;;;;;;5011902;28;20464;-75
2023/12/10 08:19:42;;;;;;;19.60;3.77;;;;;;;;;;5011580;28;20493;-75
2023/12/10 08:22:08;;;;;;;16.07;3.40;;;;;;;;;;5011748;28;20436;-76
2023/12/10 08:24:35;;;;;;;14.03;4.97;;;;;;;;;;5011814;28;20901;-75
2023/12/10 08:27:01;;;;;;;27.13;4.03;;;;;;;;;;5011561;28;20952;-75
2023/12/10 08:29:27;;;;;;;23.63;4.20;;;;;;;;;;5011603;28;20406;-75
2023/12/10 08:31:53;;;;;;;26.30;3.37;;;;;;;;;;5011746;28;20588;-75
2023/12/10 08:34:19;;;;;;;9.23;3.00;;;;;;;;;;5011789;28;20411;-75
2023/12/10 08:36:45;;;;;;;19.00;3.40;;;;;;;;;;5011682;28;20406;-75
2023/12/10 08:39:11;;;;;;;24.47;4.00;;;;;;;;;;5011402;28;20414;-75
2023/12/10 08:41:37;;;;;;;20.43;4.23;;;;;;;;;;5011594;28;20491;-75
2023/12/10 08:44:03;;;;;;;21.67;3.70;;;;;;;;;;5011603;28;20409;-75
2023/12/10 08:46:29;;;;;;;10.83;3.33;;;;;;;;;;5011419;28;20484;-75
2023/12/10 08:48:55;;;;;;;15.53;3.60;;;;;;;;;;5011554;28;20422;-75
2023/12/10 08:51:21;;;;;;;13.07;3.60;;;;;;;;;;5013635;28;20430;-74
2023/12/10 08:53:47;;;;;;;19.77;4.47;;;;;;;;;;5014853;28;20520;-74
2023/12/10 08:56:13;;;;;;;11.93;3.60;;;;;;;;;;5016048;28;20414;-76
2023/12/10 08:58:39;;;;;;;13.50;3.23;;;;;;;;;;5014250;28;20418;-75
2023/12/10 09:01:06;;;;;;;10.90;2.97;;;;;;;;;;5013681;28;20786;-75
2023/12/10 09:03:33;;;;;;;13.97;3.60;;;;;;;;;;5013962;28;20438;-76
2023/12/10 09:06:00;;;;;;;11.13;2.70;;;;;;;;;;5017206;28;20545;-76
2023/12/10 09:08:26;;;;;;;11.20;2.97;;;;;;;;;;5015198;28;20415;-76
2023/12/10 09:10:53;;;;;;;18.00;4.40;;;;;;;;;;5014812;28;20429;-75
2023/12/10 09:13:19;;;;;;;8.97;3.20;;;;;;;;;;5014906;28;20417;-75
2023/12/10 09:15:45;;;;;;;14.97;3.40;;;;;;;;;;5015119;28;20414;-75
2023/12/10 09:18:11;;;;;;;16.60;3.00;;;;;;;;;;5015952;28;20905;-75
2023/12/10 09:20:37;;;;;;;17.50;3.60;;;;;;;;;;5016956;28;20936;-75
2023/12/10 09:23:03;;;;;;;16.27;2.97;;;;;;;;;;5014925;28;20413;-75
2023/12/10 09:25:30;;;;;;;13.87;3.77;;;;;;;;;;5013404;28;20511;-76
2023/12/10 09:27:56;;;;;;;10.77;3.00;;;;;;;;;;5017302;28;20413;-74
2023/12/10 09:30:22;;;;;;;12.90;3.80;;;;;;;;;;5021463;28;20510;-76
2023/12/10 09:32:48;;;;;;;13.17;3.00;;;;;;;;;;5018292;28;20971;-75
2023/12/10 09:35:14;;;;;;;19.50;3.60;;;;;;;;;;5015707;28;20858;-75
2023/12/10 09:37:40;;;;;;;9.00;2.83;;;;;;;;;;5015045;28;20425;-75
2023/12/10 09:40:06;;;;;;;11.77;3.03;;;;;;;;;;5014470;28;20414;-75
2023/12/10 09:42:32;;;;;;;12.53;3.40;;;;;;;;;;5014643;28;20438;-75
2023/12/10 09:44:58;;;;;;;8.47;3.13;;;;;;;;;;5014410;28;20414;-75
2023/12/10 09:47:25;;;;;;;9.93;3.30;;;;;;;;;;5014450;28;20521;-75
2023/12/10 09:49:54;;;;;;;10.27;3.27;;;;;;;;;;5014265;28;20398;-76
2023/12/10 09:52:20;;;;;;;10.37;2.83;;;;;;;;;;5014246;28;20933;-75
2023/12/10 09:54:46;;;;;;;18.47;3.43;;;;;;;;;;5014230;28;20882;-75
2023/12/10 09:57:13;;;;;;;14.13;2.93;;;;;;;;;;5012878;28;20418;-75
2023/12/10 09:59:39;;;;;;;12.27;4.13;;;;;;;;;;5013850;28;20418;-75
2023/12/10 10:02:06;;;;;;;16.83;4.10;;;;;;;;;;5013894;28;20454;-75
2023/12/10 10:04:32;;;;;;;12.07;3.00;;;;;;;;;;5014165;28;20413;-75
2023/12/10 10:06:58;;;;;;;16.87;3.17;;;;;;;;;;5013142;28;20453;-75
2023/12/10 10:09:24;;;;;;;9.40;3.07;;;;;;;;;;5014388;28;20414;-75
2023/12/10 10:11:50;;;;;;;12.50;3.40;;;;;;;;;;5015600;28;20470;-75
2023/12/10 10:14:19;;;;;;;7.63;2.77;;;;;;;;;;5014078;28;20493;-75
2023/12/10 10:16:49;;;;;;;11.30;2.80;;;;;;;;;;5013672;28;20492;-73
2023/12/10 10:19:15;;;;;;;9.17;2.83;;;;;;;;;;5013691;28;20414;-76
2023/12/10 10:21:42;;;;;;;9.70;2.90;;;;;;;;;;5013797;28;20437;-76
2023/12/10 10:24:08;;;;;;;9.00;2.70;;;;;;;;;;5014006;28;20410;-76
2023/12/10 10:26:35;;;;;;;11.13;3.00;;;;;;;;;;5013576;28;20746;-77
2023/12/10 10:29:02;;;;;;;6.00;2.53;;;;;;;;;;5012831;28;20786;-75
2023/12/10 10:31:29;;;;;;;8.93;3.10;;;;;;;;;;5013140;28;20437;-76
2023/12/10 10:33:55;;;;;;;11.10;3.13;;;;;;;;;;5013164;28;20406;-76
2023/12/10 10:36:22;;;;;;;9.43;3.37;;;;;;;;;;5012195;28;20446;-76
2023/12/10 10:38:49;;;;;;;14.33;3.33;;;;;;;;;;5012698;28;20419;-77
2023/12/10 10:41:15;;;;;;;23.63;3.63;;;;;;;;;;5013037;28;20921;-75
2023/12/10 10:43:41;;;;;;;8.83;3.17;;;;;;;;;;5012939;28;20418;-76
2023/12/10 10:46:07;;;;;;;13.23;3.83;;;;;;;;;;5013198;28;20453;-76
2023/12/10 10:48:35;;;;;;;12.10;3.03;;;;;;;;;;5015496;28;20418;-75
2023/12/10 10:51:01;;;;;;;12.17;4.20;;;;;;;;;;5018386;28;20425;-77
2023/12/10 10:53:28;;;;;;;11.50;4.20;;;;;;;;;;5019635;28;20410;-74
2023/12/10 10:55:54;;;;;;;26.20;4.63;;;;;;;;;;5012158;28;20789;-74
2023/12/10 10:58:27;;;;;;;18.23;3.20;;;;;;;;;;5013309;28;20801;-74
2023/12/10 11:00:57;;;;;;;9.80;2.70;;;;;;;;;;5011288;28;20828;-73
2023/12/10 11:03:29;;;;;;;12.97;3.77;;;;;;;;;;5013068;28;20472;-74
2023/12/10 11:06:02;;;;;;;17.20;4.10;;;;;;;;;;5012781;28;20464;-74
2023/12/10 11:08:29;;;;;;;8.20;3.40;;;;;;;;;;5012915;28;20452;-74
2023/12/10 11:10:59;;;;;;;10.90;3.93;;;;;;;;;;5012696;28;20861;-75
2023/12/10 11:13:45;;;;;;;17.33;3.87;;;;;;;;;;5012532;28;20477;-74
2023/12/10 11:16:11;;;;;;;6.00;2.50;;;;;;;;;;5011643;28;20437;-75
2023/12/10 11:18:51;;;;;;;17.03;4.20;;;;;;;;;;5012277;28;20410;-74
2023/12/10 11:21:17;;;;;;;12.63;3.43;;;;;;;;;;5015254;28;20430;-74
2023/12/10 11:23:43;;;;;;;7.50;3.00;;;;;;;;;;5015163;28;20806;-75
2023/12/10 11:26:09;;;;;;;6.73;3.80;;;;;;;;;;5012711;28;20952;-74
2023/12/10 11:28:35;;;;;;;12.47;3.20;;;;;;;;;;5013408;28;20418;-74
2023/12/10 11:31:01;;;;;;;12.13;3.20;;;;;;;;;;5013360;28;20426;-75
2023/12/10 11:33:28;;;;;;;11.53;3.40;;;;;;;;;;5012135;28;20418;-74
2023/12/10 11:36:00;;;;;;;12.27;3.47;;;;;;;;;;5014977;28;20418;-74
2023/12/10 11:38:26;;;;;;;6.73;3.17;;;;;;;;;;5014169;28;20433;-75
2023/12/10 11:40:52;;;;;;;13.50;3.00;;;;;;;;;;5012639;28;20721;-74
2023/12/10 11:43:19;;;;;;;8.13;2.60;;;;;;;;;;5011827;28;20827;-77
2023/12/10 11:45:46;;;;;;;8.90;3.50;;;;;;;;;;5011617;28;20473;-75
2023/12/10 11:48:13;;;;;;;15.77;3.70;;;;;;;;;;5011736;28;20774;-75
2023/12/10 11:50:40;;;;;;;14.90;3.67;;;;;;;;;;5010936;28;20453;-75
2023/12/10 11:53:06;;;;;;;20.30;5.27;;;;;;;;;;5011220;28;20418;-75
2023/12/10 11:55:33;;;;;;;16.63;5.00;;;;;;;;;;5012478;28;20406;-75
2023/12/10 11:57:59;;;;;;;10.83;3.93;;;;;;;;;;5012384;28;20424;-75
2023/12/10 12:00:25;;;;;;;24.00;3.40;;;;;;;;;;5011907;28;20437;-76
2023/12/10 12:02:55;;;;;;;14.37;3.50;;;;;;;;;;5012553;28;20448;-76
2023/12/10 12:05:21;;;;;;;9.97;3.50;;;;;;;;;;5011004;28;20472;-76
2023/12/10 12:07:50;;;;;;;9.30;3.50;;;;;;;;;;5012849;28;20414;-76
2023/12/10 12:10:19;;;;;;;12.30;4.07;;;;;;;;;;5012064;28;20429;-75
2023/12/10 12:12:46;;;;;;;11.90;3.73;;;;;;;;;;5012370;28;20409;-76
2023/12/10 12:15:13;;;;;;;13.83;4.27;;;;;;;;;;5012437;28;20402;-75
2023/12/10 12:17:40;;;;;;;30.87;4.77;;;;;;;;;;5012080;28;20414;-75
2023/12/10 12:20:14;;;;;;;14.50;3.97;;;;;;;;;;5010386;28;20415;-75
2023/12/10 12:22:40;;;;;;;12.43;3.40;;;;;;;;;;5011638;28;20430;-75
2023/12/10 12:25:06;;;;;;;18.90;4.10;;;;;;;;;;5011952;28;20516;-76
2023/12/10 12:27:32;;;;;;;14.17;3.80;;;;;;;;;;5011887;28;20439;-76
2023/12/10 12:29:58;;;;;;;21.97;6.30;;;;;;;;;;5013110;28;20889;-76
2023/12/10 12:32:24;;;;;;;14.03;4.03;;;;;;;;;;5015887;28;20426;-75
2023/12/10 12:34:50;;;;;;;17.93;4.00;;;;;;;;;;5016389;28;20496;-75
2023/12/10 12:37:16;;;;;;;15.00;4.00;;;;;;;;;;5017988;28;20776;-73
2023/12/10 12:39:42;;;;;;;16.77;3.73;;;;;;;;;;5016249;28;20461;-76
2023/12/10 12:42:08;;;;;;;17.60;4.57;;;;;;;;;;5010703;28;20472;-73
2023/12/10 12:44:34;;;;;;;20.37;4.03;;;;;;;;;;5008099;28;20505;-73
2023/12/10 12:47:00;;;;;;;17.27;4.60;;;;;;;;;;5015449;28;20476;-73
2023/12/10 12:49:26;;;;;;;10.57;3.60;;;;;;;;;;5021452;28;20425;-74
2023/12/10 12:51:52;;;;;;;19.83;3.63;;;;;;;;;;5027283;28;20963;-74
2023/12/10 12:54:18;;;;;;;16.87;4.33;;;;;;;;;;5034987;28;20424;-79
2023/12/10 12:56:45;;;;;;;15.10;3.43;;;;;;;;;;5034576;28;20421;-78
2023/12/10 12:59:13;;;;;;;16.70;4.10;;;;;;;;;;5034381;28;20421;-78
2023/12/10 13:01:39;;;;;;;12.13;3.97;;;;;;;;;;5035740;28;20444;-78
2023/12/10 13:04:05;;;;;;;19.00;4.57;;;;;;;;;;5035466;28;20416;-78
2023/12/10 13:06:31;;;;;;;15.77;3.57;;;;;;;;;;5035477;28;20464;-78
2023/12/10 13:08:57;;;;;;;15.20;3.87;;;;;;;;;;5033814;28;20416;-78
2023/12/10 13:11:23;;;;;;;22.83;4.20;;;;;;;;;;5034375;28;20432;-78
2023/12/10 13:13:49;;;;;;;8.73;3.73;;;;;;;;;;5039242;28;20455;-78
2023/12/10 13:16:15;;;;;;;10.50;3.20;;;;;;;;;;5033930;28;20786;-78
2023/12/10 13:18:41;;;;;;;27.30;4.97;;;;;;;;;;5033926;28;20512;-78
2023/12/10 13:21:07;;;;;;;11.90;3.83;;;;;;;;;;5035057;28;20436;-79
2023/12/10 13:23:33;;;;;;;8.73;3.93;;;;;;;;;;5035121;28;20405;-78
2023/12/10 13:25:59;;;;;;;14.67;3.80;;;;;;;;;;5035387;28;20828;-79
2023/12/10 13:28:27;;;;;;;16.83;4.90;;;;;;;;;;5033622;28;20431;-78
2023/12/10 13:30:53;;;;;;;10.90;3.67;;;;;;;;;;5034614;28;20736;-79
2023/12/10 13:33:19;;;;;;;9.50;3.33;;;;;;;;;;5035157;28;20405;-78
2023/12/10 13:35:45;;;;;;;15.83;4.97;;;;;;;;;;5034884;28;20405;-79
2023/12/10 13:38:12;;;;;;;10.80;3.30;;;;;;;;;;5035043;28;20905;-79
2023/12/10 13:40:38;;;;;;;7.63;2.90;;;;;;;;;;5034700;28;20440;-78
2023/12/10 13:43:04;;;;;;;9.90;2.90;;;;;;;;;;5035029;28;20414;-78
2023/12/10 13:45:30;;;;;;;10.10;3.67;;;;;;;;;;5035131;28;20820;-78
2023/12/10 13:47:56;;;;;;;8.93;3.00;;;;;;;;;;5034656;28;20413;-78
2023/12/10 13:50:22;;;;;;;11.20;3.40;;;;;;;;;;5033018;28;20406;-78
2023/12/10 13:52:49;;;;;;;17.23;3.23;;;;;;;;;;5033759;28;20419;-78
2023/12/10 13:55:16;;;;;;;10.47;2.77;;;;;;;;;;5034445;28;20409;-78
2023/12/10 13:57:42;;;;;;;12.40;3.27;;;;;;;;;;5033391;28;20834;-79
2023/12/10 14:00:11;;;;;;;16.50;2.83;;;;;;;;;;5033183;28;20413;-79
2023/12/10 14:02:38;;;;;;;16.27;3.43;;;;;;;;;;5036254;28;20470;-78
2023/12/10 14:05:06;;;;;;;13.23;3.20;;;;;;;;;;5036406;28;20404;-78
2023/12/10 14:07:32;;;;;;;11.60;4.10;;;;;;;;;;5035229;28;20413;-78
2023/12/10 14:09:58;;;;;;;25.70;3.90;;;;;;;;;;5034550;28;20409;-78
2023/12/10 14:12:24;;;;;;;19.23;4.80;;;;;;;;;;5042033;28;20425;-78
2023/12/10 14:14:50;;;;;;;9.47;3.17;;;;;;;;;;5042344;28;20424;-79
2023/12/10 14:17:16;;;;;;;6.60;3.27;;;;;;;;;;5037357;28;20417;-78
2023/12/10 14:19:42;;;;;;;16.63;3.83;;;;;;;;;;5034932;28;20466;-77
2023/12/10 14:22:08;;;;;;;13.73;3.90;;;;;;;;;;5034409;28;20812;-78
2023/12/10 14:24:34;;;;;;;16.83;3.03;;;;;;;;;;5032660;28;20409;-78
2023/12/10 14:27:00;;;;;;;10.87;2.80;;;;;;;;;;5033642;28;20461;-78
2023/12/10 14:29:26;;;;;;;28.90;4.83;;;;;;;;;;5033998;28;20772;-77
2023/12/10 14:31:52;;;;;;;11.83;3.63;;;;;;;;;;5034158;28;20429;-77
2023/12/10 14:34:18;;;;;;;15.37;4.60;;;;;;;;;;5033703;28;20410;-77
2023/12/10 14:36:44;;;;;;;22.10;7.07;;;;;;;;;;5033811;28;20564;-77
2023/12/10 14:39:10;;;;;;;20.53;5.43;;;;;;;;;;5031950;28;20423;-77
2023/12/10 14:41:36;;;;;;;16.60;6.33;;;;;;;;;;5033547;28;20437;-79
2023/12/10 14:44:02;;;;;;;16.13;5.13;;;;;;;;;;5033449;28;20923;-78
2023/12/10 14:46:28;;;;;;;13.53;4.67;;;;;;;;;;5033834;28;20471;-79
2023/12/10 14:48:54;;;;;;;14.40;4.90;;;;;;;;;;5033294;28;20413;-77
2023/12/10 14:51:22;;;;;;;20.43;7.93;;;;;;;;;;5032045;28;20425;-77
2023/12/10 14:53:48;;;;;;;21.13;7.70;;;;;;;;;;5032032;28;20787;-78
2023/12/10 14:56:14;;;;;;;27.77;7.03;;;;;;;;;;5032140;28;20835;-77
2023/12/10 14:58:40;;;;;;;16.37;4.83;;;;;;;;;;5033056;28;20418;-81
2023/12/10 15:01:06;;;;;;;10.30;3.40;;;;;;;;;;5032927;28;20488;-79
2023/12/10 15:03:32;;;;;;;18.40;4.87;;;;;;;;;;5033116;28;20413;-80
2023/12/10 15:05:58;;;;;;;18.33;5.40;;;;;;;;;;5031403;28;20992;-78
2023/12/10 15:08:24;;;;;;;23.27;3.80;;;;;;;;;;5031577;28;20452;-81
2023/12/10 15:10:50;;;;;;;11.37;3.90;;;;;;;;;;5031498;28;20473;-78
2023/12/10 15:13:17;;;;;;;23.10;4.43;;;;;;;;;;5032756;28;20927;-79
2023/12/10 15:15:43;;;;;;;18.20;6.30;;;;;;;;;;5033071;28;20473;-78
2023/12/10 15:18:09;;;;;;;20.47;6.63;;;;;;;;;;5033007;28;20405;-77
2023/12/10 15:20:35;;;;;;;27.80;5.53;;;;;;;;;;5032637;28;20472;-78
2023/12/10 15:23:01;;;;;;;16.03;5.90;;;;;;;;;;5033198;28;20741;-78
2023/12/10 15:25:27;;;;;;;16.23;7.50;;;;;;;;;;5033209;28;20460;-77
2023/12/10 15:27:53;;;;;;;21.37;9.10;;;;;;;;;;5032618;28;20413;-77
2023/12/10 15:30:19;;;;;;;21.57;7.43;;;;;;;;;;5036941;28;20416;-79
2023/12/10 15:32:46;;;;;;;23.63;7.00;;;;;;;;;;5054072;28;20480;-80
2023/12/10 15:35:12;;;;;;;31.90;7.20;;;;;;;;;;5055053;28;20866;-80
2023/12/10 15:37:38;;;;;;;29.30;7.07;;;;;;;;;;5038913;28;20504;-78
2023/12/10 15:40:04;;;;;;;20.63;6.67;;;;;;;;;;5032930;28;20413;-78
2023/12/10 15:42:30;;;;;;;26.27;8.70;;;;;;;;;;5032852;28;20491;-78
2023/12/10 15:44:56;;;;;;;28.97;8.90;;;;;;;;;;5032979;28;20412;-77
2023/12/10 15:47:22;;;;;;;43.37;9.83;;;;;;;;;;5031584;28;20468;-77
2023/12/10 15:49:48;;;;;;;25.73;6.40;;;;;;;;;;5033159;28;20405;-77
2023/12/10 15:52:15;;;;;;;30.83;8.63;;;;;;;;;;5031224;28;20437;-77
2023/12/10 15:54:41;;;;;;;22.47;7.13;;;;;;;;;;5032583;28;20412;-81
2023/12/10 15:57:07;;;;;;;34.03;8.10;;;;;;;;;;5033024;28;20425;-79
2023/12/10 15:59:33;;;;;;;36.30;8.70;;;;;;;;;;5032699;28;20481;-80
2023/12/10 16:02:00;;;;;;;22.87;8.37;;;;;;;;;;5031199;28;20821;-79
2023/12/10 16:04:26;;;;;;;23.80;5.80;;;;;;;;;;5032105;28;20420;-78
2023/12/10 16:06:52;;;;;;;9.93;3.87;;;;;;;;;;5031320;28;20592;-74
2023/12/10 16:09:18;;;;;;;15.90;4.03;;;;;;;;;;5032168;28;20524;-73
2023/12/10 16:11:44;;;;;;;14.60;5.20;;;;;;;;;;5030802;28;20444;-73
2023/12/10 16:14:11;;;;;;;15.43;5.90;;;;;;;;;;5020250;28;20459;-73
2023/12/10 16:16:40;;;;;;;19.23;6.50;;;;;;;;;;5011751;28;20832;-73
2023/12/10 16:19:06;;;;;;;24.43;5.77;;;;;;;;;;5012826;28;20505;-72
2023/12/10 16:21:32;;;;;;;16.53;4.13;;;;;;;;;;5011899;28;20609;-72
2023/12/10 16:23:58;;;;;;;11.60;4.37;;;;;;;;;;5012155;28;20437;-72
2023/12/10 16:26:24;;;;;;;29.90;7.17;;;;;;;;;;5009387;28;20469;-72
2023/12/10 16:28:50;;;;;;;22.73;6.23;;;;;;;;;;5010205;28;20448;-74
2023/12/10 16:31:17;;;;;;;15.20;5.77;;;;;;;;;;5011563;28;20446;-74
2023/12/10 16:33:46;;;;;;;14.13;4.00;;;;;;;;;;5011689;28;20505;-75
2023/12/10 16:36:13;;;;;;;22.03;5.37;;;;;;;;;;5018637;28;20417;-74
2023/12/10 16:38:39;;;;;;;23.63;4.13;;;;;;;;;;5012076;28;20417;-72
2023/12/10 16:41:07;;;;;;;12.80;3.80;;;;;;;;;;5011196;28;20469;-72
2023/12/10 16:43:33;;;;;;;12.63;4.20;;;;;;;;;;5011643;28;20428;-72
2023/12/10 16:45:59;;;;;;;27.07;6.50;;;;;;;;;;5011762;28;20965;-71
2023/12/10 16:48:25;;;;;;;23.07;6.10;;;;;;;;;;5012072;28;20433;-72
2023/12/10 16:50:52;;;;;;;22.43;6.43;;;;;;;;;;5018890;28;20814;-74
2023/12/10 16:53:17;;;;;;;25.70;6.30;;;;;;;;;;5011922;28;20768;-73
2023/12/10 16:55:44;;;;;;;18.40;6.60;;;;;;;;;;5010790;28;20417;-72
2023/12/10 16:58:10;;;;;;;14.10;5.13;;;;;;;;;;5012126;28;20441;-73
2023/12/10 17:00:36;;;;;;;18.00;5.47;;;;;;;;;;5011664;28;20462;-74
2023/12/10 17:03:05;;;;;;;25.37;7.77;;;;;;;;;;5011928;28;20423;-74
2023/12/10 17:05:31;;;;;;;26.03;8.03;;;;;;;;;;5010525;28;20465;-74
2023/12/10 17:07:58;;;;;;;43.13;9.50;;;;;;;;;;5011669;28;20505;-73
2023/12/10 17:10:24;;;;;;;15.57;4.33;;;;;;;;;;5017676;28;20731;-73
2023/12/10 17:12:51;;;;;;;26.17;6.93;;;;;;;;;;5009401;28;20421;-75
2023/12/10 17:15:17;;;;;;;25.93;9.37;;;;;;;;;;5020483;28;20424;-75
2023/12/10 17:17:43;;;;;;;32.07;9.07;;;;;;;;;;5015456;28;20479;-76
2023/12/10 17:20:09;;;;;;;19.03;7.57;;;;;;;;;;5015649;28;20410;-77
2023/12/10 17:22:36;;;;;;;19.70;7.10;;;;;;;;;;5015468;28;20409;-75
2023/12/10 17:25:02;;;;;;;37.57;9.97;;;;;;;;;;5015236;28;20418;-76
2023/12/10 17:27:28;;;;;;;16.97;5.10;;;;;;;;;;5017388;28;20555;-79
2023/12/10 17:29:55;;;;;;;16.10;5.00;;;;;;;;;;5016276;28;20409;-77
2023/12/10 17:32:21;;;;;;;24.43;5.90;;;;;;;;;;5016272;28;20433;-76
2023/12/10 17:34:47;;;;;;;13.07;5.03;;;;;;;;;;5015707;28;20932;-76
2023/12/10 17:37:13;;;;;;;20.23;6.83;;;;;;;;;;5016116;28;20438;-76
2023/12/10 17:39:39;;;;;;;14.70;3.83;;;;;;;;;;5019136;28;20914;-77
2023/12/10 17:42:05;;;;;;;25.97;5.03;;;;;;;;;;5022304;28;20513;-78
2023/12/10 17:44:33;;;;;;;20.90;3.97;;;;;;;;;;5014770;28;20414;-75
2023/12/10 17:46:58;;;;;;;23.37;4.43;;;;;;;;;;5013633;28;20462;-79
2023/12/10 17:49:24;;;;;;;8.60;3.47;;;;;;;;;;5014853;28;20410;-75
2023/12/10 17:51:51;;;;;;;12.20;3.57;;;;;;;;;;5013282;28;20786;-75
2023/12/10 17:54:17;;;;;;;14.83;3.50;;;;;;;;;;5014740;28;20410;-74
2023/12/10 17:56:43;;;;;;;17.70;6.17;;;;;;;;;;5015510;28;20891;-75
2023/12/10 17:59:10;;;;;;;24.73;5.00;;;;;;;;;;5014373;28;20449;-74
2023/12/10 18:01:36;;;;;;;17.90;4.53;;;;;;;;;;5014157;28;20450;-75
2023/12/10 18:04:02;;;;;;;29.77;6.70;;;;;;;;;;5014382;28;20835;-75
2023/12/10 18:06:28;;;;;;;18.60;5.67;;;;;;;;;;5013459;28;20469;-75
2023/12/10 18:08:54;;;;;;;13.73;4.70;;;;;;;;;;5013665;28;20425;-75
2023/12/10 18:11:20;;;;;;;13.63;3.67;;;;;;;;;;5014402;28;20441;-75
2023/12/10 18:13:47;;;;;;;12.47;4.30;;;;;;;;;;5014883;28;20413;-76
2023/12/10 18:16:24;;;;;;;17.20;6.70;;;;;;;;;;5012980;28;20581;-74
2023/12/10 18:18:50;;;;;;;25.20;7.03;;;;;;;;;;5012746;28;20501;-76
2023/12/10 18:21:16;;;;;;;17.00;6.00;;;;;;;;;;5014027;28;20434;-76
2023/12/10 18:23:44;;;;;;;17.60;5.70;;;;;;;;;;5012964;28;20422;-76
2023/12/10 18:26:10;;;;;;;17.77;6.13;;;;;;;;;;5013751;28;20508;-75
2023/12/10 18:28:36;;;;;;;13.37;4.53;;;;;;;;;;5014033;28;20490;-77
2023/12/10 18:31:02;;;;;;;19.00;5.20;;;;;;;;;;5013853;28;20437;-76
2023/12/10 18:33:28;;;;;;;26.90;6.77;;;;;;;;;;5013989;28;20402;-75
2023/12/10 18:35:54;;;;;;;23.57;6.50;;;;;;;;;;5013545;28;20940;-76
2023/12/10 18:38:21;;;;;;;20.93;7.37;;;;;;;;;;5013750;28;20441;-76
2023/12/10 18:40:47;;;;;;;23.93;6.90;;;;;;;;;;5013672;28;20434;-75
2023/12/10 18:43:13;;;;;;;16.93;4.57;;;;;;;;;;5014153;28;20490;-75
2023/12/10 18:45:41;;;;;;;7.60;3.53;;;;;;;;;;5013613;28;20555;-76
2023/12/10 18:48:07;;;;;;;12.20;4.60;;;;;;;;;;5013659;28;20956;-75
2023/12/10 18:50:33;;;;;;;11.17;4.23;;;;;;;;;;5013573;28;20984;-75
2023/12/10 18:53:00;;;;;;;13.90;4.80;;;;;;;;;;5014102;28;20406;-75
2023/12/10 18:55:26;;;;;;;13.30;3.87;;;;;;;;;;5013961;28;20414;-76
2023/12/10 18:57:52;;;;;;;13.60;3.40;;;;;;;;;;5013762;28;20433;-75
2023/12/10 19:00:20;;;;;;;10.87;4.90;;;;;;;;;;5013432;28;20410;-77
2023/12/10 19:02:46;;;;;;;9.23;3.37;;;;;;;;;;5013715;28;20786;-75
2023/12/10 19:05:12;;;;;;;12.50;3.90;;;;;;;;;;5013109;28;20916;-75
2023/12/10 19:07:39;;;;;;;11.90;4.20;;;;;;;;;;5013746;28;20445;-75
2023/12/10 19:10:06;;;;;;;13.17;4.37;;;;;;;;;;5013749;28;20402;-75
2023/12/10 19:12:32;;;;;;;8.60;3.97;;;;;;;;;;5012311;28;20807;-75
2023/12/10 19:14:57;;;;;;;10.67;4.37;;;;;;;;;;5011987;28;20425;-75
2023/12/10 19:17:23;;;;;;;17.87;4.17;;;;;;;;;;5011921;28;20421;-75
2023/12/10 19:19:49;;;;;;;13.80;3.20;;;;;;;;;;5013310;28;20909;-74
2023/12/10 19:22:15;;;;;;;12.00;4.13;;;;;;;;;;5013268;28;20491;-75
2023/12/10 19:24:42;;;;;;;8.00;3.80;;;;;;;;;;5013537;28;20421;-76
2023/12/10 19:27:07;;;;;;;14.50;4.17;;;;;;;;;;5013243;28;20469;-75
2023/12/10 19:29:33;;;;;;;17.77;4.70;;;;;;;;;;5012969;28;20413;-76
2023/12/10 19:31:59;;;;;;;13.47;4.70;;;;;;;;;;5013141;28;20773;-76
2023/12/10 19:34:25;;;;;;;13.43;4.40;;;;;;;;;;5011709;28;20469;-76
2023/12/10 19:36:51;;;;;;;7.57;2.90;;;;;;;;;;5013815;28;20410;-79
2023/12/10 19:39:18;;;;;;;11.90;2.60;;;;;;;;;;5013255;28;20414;-78
2023/12/10 19:41:45;;;;;;;8.50;2.93;;;;;;;;;;5013140;28;20487;-78
2023/12/10 19:44:11;;;;;;;8.10;2.77;;;;;;;;;;5012934;28;20846;-78
2023/12/10 19:46:37;;;;;;;4.70;2.20;;;;;;;;;;5012919;28;20980;-80
2023/12/10 19:49:06;;;;;;;6.50;2.90;;;;;;;;;;5012844;28;20410;-79
2023/12/10 19:51:32;;;;;;;4.83;2.80;;;;;;;;;;5011598;28;20805;-78
2023/12/10 19:53:59;;;;;;;8.53;2.40;;;;;;;;;;5012932;28;20406;-78
2023/12/10 19:56:25;;;;;;;8.87;2.50;;;;;;;;;;5013253;28;20914;-81
2023/12/10 19:58:51;;;;;;;8.30;2.60;;;;;;;;;;5020370;28;20390;-84
2023/12/10 20:01:17;;;;;;;12.50;3.10;;;;;;;;;;5025104;28;20446;-77
2023/12/10 20:03:44;;;;;;;11.17;3.03;;;;;;;;;;5024684;28;20407;-80
2023/12/10 20:06:10;;;;;;;6.67;2.07;;;;;;;;;;5017731;28;20494;-77
2023/12/10 20:08:36;;;;;;;3.43;2.23;;;;;;;;;;5028728;28;20430;-81
2023/12/10 20:11:03;;;;;;;8.37;2.03;;;;;;;;;;5033002;28;20426;-81
2023/12/10 20:13:29;;;;;;;4.50;2.07;;;;;;;;;;5033889;28;20460;-79
2023/12/10 20:15:56;;;;;;;5.03;2.47;;;;;;;;;;5027180;28;20398;-78
2023/12/10 20:18:22;;;;;;;4.00;1.93;;;;;;;;;;5028850;28;20407;-80
2023/12/10 20:20:49;;;;;;;5.90;1.77;;;;;;;;;;5023493;28;20489;-78
2023/12/10 20:23:18;;;;;;;5.43;2.17;;;;;;;;;;5015229;28;20410;-79
2023/12/10 20:25:45;;;;;;;6.10;2.47;;;;;;;;;;5012625;28;20561;-78